首页
METAR-TAF:

METAR-TAF

机场 :

Morristown, 田纳西州, 美国

纬度: 36-10-46N, 经度: 083-22-32W, 海拔: 400米

当前天气观测

该预报发布于19分钟前的14:15 UTC
风速5节,风向
温度 16°C
湿度 48%
气压 1025 hPa
能見度: 16.1公里
天空无云

METAR: KMOR 221415Z AUTO 09005KT 10SM CLR 16/05 A3026 RMK A01

时间: 09:34 (14:34 UTC)


TAF: 丢失

超过4000个机场的气象观测和天气预报(METAR&TAF报告)。

可查询的气象台以黄色和红色小点在地图上表示。

将鼠标移到小点上方,可查看气象台名称。

然后点击查看天气观测和预报。

如需切换地图:点击带黑十字的绿色按钮放大地图;点击带横线的绿色按钮缩小地图;或者点击绿色箭头查看邻近地区的地图。


METAR-TAF: